sensor_id;sensor_type;location;lat;lon;timestamp;P1;durP1;ratioP1;P2;durP2;ratioP2
60502;SDS011;51448;51.660;5.824;2023-05-07T00:00:38;10.80;;;7.38;;
60502;SDS011;51448;51.660;5.824;2023-05-07T00:03:05;11.02;;;7.07;;
60502;SDS011;51448;51.660;5.824;2023-05-07T00:05:34;10.88;;;6.88;;
60502;SDS011;51448;51.660;5.824;2023-05-07T00:08:02;10.65;;;7.18;;
60502;SDS011;51448;51.660;5.824;2023-05-07T00:10:30;10.35;;;7.18;;
60502;SDS011;51448;51.660;5.824;2023-05-07T00:12:57;10.98;;;7.25;;
60502;SDS011;51448;51.660;5.824;2023-05-07T00:15:26;9.25;;;6.90;;
60502;SDS011;51448;51.660;5.824;2023-05-07T00:17:54;11.23;;;8.10;;
60502;SDS011;51448;51.660;5.824;2023-05-07T00:20:23;11.88;;;8.40;;
60502;SDS011;51448;51.660;5.824;2023-05-07T00:22:51;11.27;;;7.68;;
60502;SDS011;51448;51.660;5.824;2023-05-07T00:25:18;9.80;;;7.75;;
60502;SDS011;51448;51.660;5.824;2023-05-07T00:27:46;10.95;;;7.72;;
60502;SDS011;51448;51.660;5.824;2023-05-07T00:30:14;12.38;;;7.88;;
60502;SDS011;51448;51.660;5.824;2023-05-07T00:32:42;9.93;;;7.50;;
60502;SDS011;51448;51.660;5.824;2023-05-07T00:35:12;11.68;;;8.05;;
60502;SDS011;51448;51.660;5.824;2023-05-07T00:37:40;11.82;;;8.05;;
60502;SDS011;51448;51.660;5.824;2023-05-07T00:40:07;11.05;;;8.75;;
60502;SDS011;51448;51.660;5.824;2023-05-07T00:42:36;11.35;;;8.70;;
60502;SDS011;51448;51.660;5.824;2023-05-07T00:45:04;12.15;;;8.60;;
60502;SDS011;51448;51.660;5.824;2023-05-07T00:47:34;10.55;;;8.23;;
60502;SDS011;51448;51.660;5.824;2023-05-07T00:50:03;11.02;;;8.80;;
60502;SDS011;51448;51.660;5.824;2023-05-07T00:52:32;14.32;;;10.00;;
60502;SDS011;51448;51.660;5.824;2023-05-07T00:55:04;12.55;;;9.18;;
60502;SDS011;51448;51.660;5.824;2023-05-07T00:57:37;11.73;;;9.65;;
60502;SDS011;51448;51.660;5.824;2023-05-07T01:00:08;12.77;;;10.23;;
60502;SDS011;51448;51.660;5.824;2023-05-07T01:02:38;15.30;;;11.18;;
60502;SDS011;51448;51.660;5.824;2023-05-07T01:05:16;13.13;;;10.55;;
60502;SDS011;51448;51.660;5.824;2023-05-07T01:07:47;13.70;;;11.85;;
60502;SDS011;51448;51.660;5.824;2023-05-07T01:10:17;14.73;;;11.73;;
60502;SDS011;51448;51.660;5.824;2023-05-07T01:12:46;14.68;;;11.77;;
60502;SDS011;51448;51.660;5.824;2023-05-07T01:15:16;16.85;;;11.57;;
60502;SDS011;51448;51.660;5.824;2023-05-07T01:17:45;19.00;;;12.35;;
60502;SDS011;51448;51.660;5.824;2023-05-07T01:20:20;15.57;;;11.57;;
60502;SDS011;51448;51.660;5.824;2023-05-07T01:22:51;15.50;;;11.07;;
60502;SDS011;51448;51.660;5.824;2023-05-07T01:25:20;19.83;;;12.80;;
60502;SDS011;51448;51.660;5.824;2023-05-07T01:30:22;17.38;;;13.73;;
60502;SDS011;51448;51.660;5.824;2023-05-07T01:32:52;17.00;;;14.85;;
60502;SDS011;51448;51.660;5.824;2023-05-07T01:35:32;16.67;;;14.48;;
60502;SDS011;51448;51.660;5.824;2023-05-07T01:38:06;16.02;;;14.15;;
60502;SDS011;51448;51.660;5.824;2023-05-07T01:40:35;15.15;;;11.68;;
60502;SDS011;51448;51.660;5.824;2023-05-07T01:43:03;16.45;;;12.80;;
60502;SDS011;51448;51.660;5.824;2023-05-07T01:45:34;15.50;;;13.27;;
60502;SDS011;51448;51.660;5.824;2023-05-07T01:48:03;15.68;;;13.80;;
60502;SDS011;51448;51.660;5.824;2023-05-07T01:50:31;15.48;;;13.77;;
60502;SDS011;51448;51.660;5.824;2023-05-07T01:53:01;15.85;;;14.15;;
60502;SDS011;51448;51.660;5.824;2023-05-07T01:55:29;17.15;;;14.05;;
60502;SDS011;51448;51.660;5.824;2023-05-07T01:57:58;17.88;;;14.02;;
60502;SDS011;51448;51.660;5.824;2023-05-07T02:00:26;17.80;;;13.98;;
60502;SDS011;51448;51.660;5.824;2023-05-07T02:02:54;16.40;;;13.23;;
60502;SDS011;51448;51.660;5.824;2023-05-07T02:05:36;16.05;;;13.77;;
60502;SDS011;51448;51.660;5.824;2023-05-07T02:08:12;17.00;;;13.95;;
60502;SDS011;51448;51.660;5.824;2023-05-07T02:10:39;20.13;;;15.32;;
60502;SDS011;51448;51.660;5.824;2023-05-07T02:13:07;19.80;;;14.43;;
60502;SDS011;51448;51.660;5.824;2023-05-07T02:15:35;17.05;;;15.15;;
60502;SDS011;51448;51.660;5.824;2023-05-07T02:18:05;16.95;;;15.13;;
60502;SDS011;51448;51.660;5.824;2023-05-07T02:20:36;18.15;;;14.27;;
60502;SDS011;51448;51.660;5.824;2023-05-07T02:23:04;18.92;;;15.85;;
60502;SDS011;51448;51.660;5.824;2023-05-07T02:25:31;19.48;;;16.35;;
60502;SDS011;51448;51.660;5.824;2023-05-07T02:27:59;19.98;;;17.52;;
60502;SDS011;51448;51.660;5.824;2023-05-07T02:30:41;22.67;;;17.40;;
60502;SDS011;51448;51.660;5.824;2023-05-07T02:33:09;19.92;;;17.83;;
60502;SDS011;51448;51.660;5.824;2023-05-07T02:35:40;21.30;;;18.67;;
60502;SDS011;51448;51.660;5.824;2023-05-07T02:38:09;20.27;;;18.13;;
60502;SDS011;51448;51.660;5.824;2023-05-07T02:40:39;20.40;;;18.08;;
60502;SDS011;51448;51.660;5.824;2023-05-07T02:43:07;24.65;;;17.77;;
60502;SDS011;51448;51.660;5.824;2023-05-07T02:45:35;22.25;;;18.70;;
60502;SDS011;51448;51.660;5.824;2023-05-07T02:48:06;20.85;;;18.73;;
60502;SDS011;51448;51.660;5.824;2023-05-07T02:50:34;23.33;;;19.42;;
60502;SDS011;51448;51.660;5.824;2023-05-07T02:53:01;22.17;;;19.95;;
60502;SDS011;51448;51.660;5.824;2023-05-07T02:55:29;21.20;;;19.05;;
60502;SDS011;51448;51.660;5.824;2023-05-07T02:57:57;21.90;;;19.60;;
60502;SDS011;51448;51.660;5.824;2023-05-07T03:00:25;22.83;;;20.42;;
60502;SDS011;51448;51.660;5.824;2023-05-07T03:03:22;16.23;;;12.75;;
60502;SDS011;51448;51.660;5.824;2023-05-07T03:05:51;17.98;;;12.82;;
60502;SDS011;51448;51.660;5.824;2023-05-07T03:08:18;18.90;;;15.50;;
60502;SDS011;51448;51.660;5.824;2023-05-07T03:10:46;18.58;;;16.60;;
60502;SDS011;51448;51.660;5.824;2023-05-07T03:13:14;20.73;;;17.52;;
60502;SDS011;51448;51.660;5.824;2023-05-07T03:15:42;15.75;;;13.27;;
60502;SDS011;51448;51.660;5.824;2023-05-07T03:18:10;18.60;;;16.65;;
60502;SDS011;51448;51.660;5.824;2023-05-07T03:20:38;20.95;;;18.75;;
60502;SDS011;51448;51.660;5.824;2023-05-07T03:23:05;21.70;;;18.83;;
60502;SDS011;51448;51.660;5.824;2023-05-07T03:25:33;20.77;;;18.48;;
60502;SDS011;51448;51.660;5.824;2023-05-07T03:28:01;23.35;;;20.85;;
60502;SDS011;51448;51.660;5.824;2023-05-07T03:30:38;19.80;;;17.70;;
60502;SDS011;51448;51.660;5.824;2023-05-07T03:33:05;18.55;;;15.73;;
60502;SDS011;51448;51.660;5.824;2023-05-07T03:35:34;18.20;;;15.50;;
60502;SDS011;51448;51.660;5.824;2023-05-07T03:38:01;15.15;;;13.23;;
60502;SDS011;51448;51.660;5.824;2023-05-07T03:40:32;18.17;;;14.05;;
60502;SDS011;51448;51.660;5.824;2023-05-07T03:43:01;17.88;;;14.48;;
60502;SDS011;51448;51.660;5.824;2023-05-07T03:45:31;19.58;;;14.20;;
60502;SDS011;51448;51.660;5.824;2023-05-07T03:48:09;20.67;;;14.00;;
60502;SDS011;51448;51.660;5.824;2023-05-07T03:50:37;15.35;;;13.18;;
60502;SDS011;51448;51.660;5.824;2023-05-07T03:53:05;17.85;;;14.30;;
60502;SDS011;51448;51.660;5.824;2023-05-07T03:55:37;19.13;;;14.70;;
60502;SDS011;51448;51.660;5.824;2023-05-07T03:58:04;16.95;;;13.77;;
60502;SDS011;51448;51.660;5.824;2023-05-07T04:00:32;18.45;;;16.00;;
60502;SDS011;51448;51.660;5.824;2023-05-07T04:03:14;17.38;;;15.55;;
60502;SDS011;51448;51.660;5.824;2023-05-07T04:05:42;19.23;;;15.52;;
60502;SDS011;51448;51.660;5.824;2023-05-07T04:08:09;18.40;;;16.38;;
60502;SDS011;51448;51.660;5.824;2023-05-07T04:10:45;17.42;;;15.55;;
60502;SDS011;51448;51.660;5.824;2023-05-07T04:13:13;20.20;;;16.60;;
60502;SDS011;51448;51.660;5.824;2023-05-07T04:15:42;18.08;;;15.23;;
60502;SDS011;51448;51.660;5.824;2023-05-07T04:18:12;22.15;;;16.42;;
60502;SDS011;51448;51.660;5.824;2023-05-07T04:20:43;17.90;;;15.88;;
60502;SDS011;51448;51.660;5.824;2023-05-07T04:23:13;18.48;;;15.63;;
60502;SDS011;51448;51.660;5.824;2023-05-07T04:25:41;20.10;;;17.20;;
60502;SDS011;51448;51.660;5.824;2023-05-07T04:28:23;17.77;;;14.88;;
60502;SDS011;51448;51.660;5.824;2023-05-07T04:30:51;19.58;;;16.80;;
60502;SDS011;51448;51.660;5.824;2023-05-07T04:33:20;20.60;;;16.63;;
60502;SDS011;51448;51.660;5.824;2023-05-07T04:35:49;19.77;;;16.50;;
60502;SDS011;51448;51.660;5.824;2023-05-07T04:38:18;18.35;;;15.90;;
60502;SDS011;51448;51.660;5.824;2023-05-07T04:40:48;20.27;;;17.58;;
60502;SDS011;51448;51.660;5.824;2023-05-07T04:43:21;19.85;;;16.13;;
60502;SDS011;51448;51.660;5.824;2023-05-07T04:45:51;18.45;;;16.20;;
60502;SDS011;51448;51.660;5.824;2023-05-07T04:48:21;19.77;;;16.92;;
60502;SDS011;51448;51.660;5.824;2023-05-07T04:50:51;19.33;;;16.38;;
60502;SDS011;51448;51.660;5.824;2023-05-07T04:53:19;19.80;;;16.33;;
60502;SDS011;51448;51.660;5.824;2023-05-07T04:55:54;19.80;;;17.55;;
60502;SDS011;51448;51.660;5.824;2023-05-07T04:58:25;19.40;;;15.43;;
60502;SDS011;51448;51.660;5.824;2023-05-07T05:00:53;18.50;;;16.52;;
60502;SDS011;51448;51.660;5.824;2023-05-07T05:03:23;19.70;;;17.08;;
60502;SDS011;51448;51.660;5.824;2023-05-07T05:05:51;21.13;;;17.85;;
60502;SDS011;51448;51.660;5.824;2023-05-07T05:08:21;19.02;;;16.83;;
60502;SDS011;51448;51.660;5.824;2023-05-07T05:10:49;20.08;;;17.80;;
60502;SDS011;51448;51.660;5.824;2023-05-07T05:13:17;20.10;;;16.83;;
60502;SDS011;51448;51.660;5.824;2023-05-07T05:15:46;19.45;;;15.98;;
60502;SDS011;51448;51.660;5.824;2023-05-07T05:18:14;21.45;;;16.63;;
60502;SDS011;51448;51.660;5.824;2023-05-07T05:20:41;20.02;;;15.50;;
60502;SDS011;51448;51.660;5.824;2023-05-07T05:23:09;20.52;;;16.15;;
60502;SDS011;51448;51.660;5.824;2023-05-07T05:25:37;22.08;;;18.23;;
60502;SDS011;51448;51.660;5.824;2023-05-07T05:28:08;22.47;;;18.47;;
60502;SDS011;51448;51.660;5.824;2023-05-07T05:30:36;18.15;;;15.07;;
60502;SDS011;51448;51.660;5.824;2023-05-07T05:33:03;17.77;;;14.57;;
60502;SDS011;51448;51.660;5.824;2023-05-07T05:35:31;20.70;;;15.15;;
60502;SDS011;51448;51.660;5.824;2023-05-07T05:40:31;18.70;;;14.88;;
60502;SDS011;51448;51.660;5.824;2023-05-07T05:42:59;17.98;;;14.45;;
60502;SDS011;51448;51.660;5.824;2023-05-07T05:45:27;22.58;;;20.23;;
60502;SDS011;51448;51.660;5.824;2023-05-07T05:47:56;22.25;;;19.95;;
60502;SDS011;51448;51.660;5.824;2023-05-07T05:50:25;22.50;;;20.25;;
60502;SDS011;51448;51.660;5.824;2023-05-07T05:52:54;22.30;;;19.98;;
60502;SDS011;51448;51.660;5.824;2023-05-07T05:55:22;22.15;;;19.75;;
60502;SDS011;51448;51.660;5.824;2023-05-07T05:57:50;23.65;;;20.70;;
60502;SDS011;51448;51.660;5.824;2023-05-07T06:00:18;22.17;;;19.88;;
60502;SDS011;51448;51.660;5.824;2023-05-07T06:02:57;21.83;;;19.33;;
60502;SDS011;51448;51.660;5.824;2023-05-07T06:05:25;21.20;;;18.30;;
60502;SDS011;51448;51.660;5.824;2023-05-07T06:07:56;20.85;;;17.75;;
60502;SDS011;51448;51.660;5.824;2023-05-07T06:10:24;20.48;;;17.58;;
60502;SDS011;51448;51.660;5.824;2023-05-07T06:12:52;19.35;;;17.23;;
60502;SDS011;51448;51.660;5.824;2023-05-07T06:15:20;20.33;;;17.77;;
60502;SDS011;51448;51.660;5.824;2023-05-07T06:17:48;21.02;;;17.63;;
60502;SDS011;51448;51.660;5.824;2023-05-07T06:20:16;19.42;;;16.88;;
60502;SDS011;51448;51.660;5.824;2023-05-07T06:22:45;19.52;;;17.00;;
60502;SDS011;51448;51.660;5.824;2023-05-07T06:25:14;20.17;;;16.95;;
60502;SDS011;51448;51.660;5.824;2023-05-07T06:27:43;17.15;;;15.20;;
60502;SDS011;51448;51.660;5.824;2023-05-07T06:30:11;19.55;;;16.88;;
60502;SDS011;51448;51.660;5.824;2023-05-07T06:32:40;20.05;;;15.88;;
60502;SDS011;51448;51.660;5.824;2023-05-07T06:35:09;23.13;;;20.73;;
60502;SDS011;51448;51.660;5.824;2023-05-07T06:37:38;24.90;;;22.40;;
60502;SDS011;51448;51.660;5.824;2023-05-07T06:40:08;22.77;;;20.38;;
60502;SDS011;51448;51.660;5.824;2023-05-07T06:42:38;24.27;;;20.30;;
60502;SDS011;51448;51.660;5.824;2023-05-07T06:45:35;21.40;;;18.60;;
60502;SDS011;51448;51.660;5.824;2023-05-07T06:48:05;22.23;;;19.83;;
60502;SDS011;51448;51.660;5.824;2023-05-07T06:50:42;22.98;;;20.58;;
60502;SDS011;51448;51.660;5.824;2023-05-07T06:53:11;21.85;;;19.55;;
60502;SDS011;51448;51.660;5.824;2023-05-07T06:55:38;22.38;;;19.88;;
60502;SDS011;51448;51.660;5.824;2023-05-07T06:58:06;20.63;;;18.35;;
60502;SDS011;51448;51.660;5.824;2023-05-07T07:00:37;18.70;;;16.53;;
60502;SDS011;51448;51.660;5.824;2023-05-07T07:03:05;18.67;;;14.32;;
60502;SDS011;51448;51.660;5.824;2023-05-07T07:05:32;19.00;;;15.90;;
60502;SDS011;51448;51.660;5.824;2023-05-07T07:08:03;20.10;;;15.18;;
60502;SDS011;51448;51.660;5.824;2023-05-07T07:10:31;18.85;;;15.07;;
60502;SDS011;51448;51.660;5.824;2023-05-07T07:13:00;19.40;;;14.75;;
60502;SDS011;51448;51.660;5.824;2023-05-07T07:15:27;20.40;;;14.52;;
60502;SDS011;51448;51.660;5.824;2023-05-07T07:17:56;15.20;;;13.60;;
60502;SDS011;51448;51.660;5.824;2023-05-07T07:20:24;18.60;;;14.90;;
60502;SDS011;51448;51.660;5.824;2023-05-07T07:22:53;16.98;;;13.48;;
60502;SDS011;51448;51.660;5.824;2023-05-07T07:25:21;16.42;;;13.68;;
60502;SDS011;51448;51.660;5.824;2023-05-07T07:27:50;16.10;;;12.63;;
60502;SDS011;51448;51.660;5.824;2023-05-07T07:30:18;16.92;;;14.00;;
60502;SDS011;51448;51.660;5.824;2023-05-07T07:32:48;19.53;;;16.93;;
60502;SDS011;51448;51.660;5.824;2023-05-07T07:35:16;22.02;;;19.92;;
60502;SDS011;51448;51.660;5.824;2023-05-07T07:37:45;21.38;;;18.92;;
60502;SDS011;51448;51.660;5.824;2023-05-07T07:40:14;21.58;;;19.27;;
60502;SDS011;51448;51.660;5.824;2023-05-07T07:42:42;20.70;;;18.10;;
60502;SDS011;51448;51.660;5.824;2023-05-07T07:45:11;19.23;;;17.33;;
60502;SDS011;51448;51.660;5.824;2023-05-07T07:47:44;19.17;;;17.17;;
60502;SDS011;51448;51.660;5.824;2023-05-07T07:50:12;17.92;;;16.02;;
60502;SDS011;51448;51.660;5.824;2023-05-07T07:52:51;18.20;;;16.30;;
60502;SDS011;51448;51.660;5.824;2023-05-07T07:55:20;18.63;;;16.73;;
60502;SDS011;51448;51.660;5.824;2023-05-07T07:57:52;18.65;;;16.65;;
60502;SDS011;51448;51.660;5.824;2023-05-07T08:00:20;17.75;;;15.95;;
60502;SDS011;51448;51.660;5.824;2023-05-07T08:02:52;18.55;;;16.55;;
60502;SDS011;51448;51.660;5.824;2023-05-07T08:05:26;18.30;;;15.02;;
60502;SDS011;51448;51.660;5.824;2023-05-07T08:07:54;15.77;;;14.07;;
60502;SDS011;51448;51.660;5.824;2023-05-07T08:10:26;15.75;;;13.00;;
60502;SDS011;51448;51.660;5.824;2023-05-07T08:13:01;17.02;;;14.55;;
60502;SDS011;51448;51.660;5.824;2023-05-07T08:15:31;17.42;;;15.65;;
60502;SDS011;51448;51.660;5.824;2023-05-07T08:18:00;17.60;;;14.82;;
60502;SDS011;51448;51.660;5.824;2023-05-07T08:20:30;16.13;;;14.43;;
60502;SDS011;51448;51.660;5.824;2023-05-07T08:22:58;17.05;;;13.88;;
60502;SDS011;51448;51.660;5.824;2023-05-07T08:25:27;16.50;;;13.95;;
60502;SDS011;51448;51.660;5.824;2023-05-07T08:27:55;16.13;;;13.55;;
60502;SDS011;51448;51.660;5.824;2023-05-07T08:30:23;13.85;;;10.13;;
60502;SDS011;51448;51.660;5.824;2023-05-07T08:32:55;13.55;;;10.77;;
60502;SDS011;51448;51.660;5.824;2023-05-07T08:35:23;15.43;;;11.75;;
60502;SDS011;51448;51.660;5.824;2023-05-07T08:37:51;14.55;;;12.20;;
60502;SDS011;51448;51.660;5.824;2023-05-07T08:40:20;14.25;;;12.75;;
60502;SDS011;51448;51.660;5.824;2023-05-07T08:42:55;14.68;;;12.57;;
60502;SDS011;51448;51.660;5.824;2023-05-07T08:45:25;12.85;;;10.18;;
60502;SDS011;51448;51.660;5.824;2023-05-07T08:47:58;12.83;;;9.43;;
60502;SDS011;51448;51.660;5.824;2023-05-07T08:50:35;13.63;;;10.85;;
60502;SDS011;51448;51.660;5.824;2023-05-07T08:53:04;13.07;;;9.10;;
60502;SDS011;51448;51.660;5.824;2023-05-07T08:55:40;15.13;;;9.23;;
60502;SDS011;51448;51.660;5.824;2023-05-07T08:58:08;11.50;;;9.40;;
60502;SDS011;51448;51.660;5.824;2023-05-07T09:00:39;13.30;;;9.77;;
60502;SDS011;51448;51.660;5.824;2023-05-07T09:03:08;13.98;;;10.32;;
60502;SDS011;51448;51.660;5.824;2023-05-07T09:05:45;10.77;;;9.25;;
60502;SDS011;51448;51.660;5.824;2023-05-07T09:08:15;10.80;;;8.30;;
60502;SDS011;51448;51.660;5.824;2023-05-07T09:10:46;10.88;;;8.98;;
60502;SDS011;51448;51.660;5.824;2023-05-07T09:13:16;11.43;;;9.20;;
60502;SDS011;51448;51.660;5.824;2023-05-07T09:15:49;11.35;;;8.77;;
60502;SDS011;51448;51.660;5.824;2023-05-07T09:18:29;12.73;;;9.23;;
60502;SDS011;51448;51.660;5.824;2023-05-07T09:20:57;11.55;;;9.15;;
60502;SDS011;51448;51.660;5.824;2023-05-07T09:23:25;13.45;;;9.07;;
60502;SDS011;51448;51.660;5.824;2023-05-07T09:25:59;13.23;;;10.00;;
60502;SDS011;51448;51.660;5.824;2023-05-07T09:28:51;10.80;;;9.10;;
60502;SDS011;51448;51.660;5.824;2023-05-07T09:31:20;13.27;;;10.07;;
60502;SDS011;51448;51.660;5.824;2023-05-07T09:33:52;14.48;;;10.88;;
60502;SDS011;51448;51.660;5.824;2023-05-07T09:36:20;13.02;;;10.10;;
60502;SDS011;51448;51.660;5.824;2023-05-07T09:38:48;10.75;;;8.70;;
60502;SDS011;51448;51.660;5.824;2023-05-07T09:41:18;13.85;;;9.60;;
60502;SDS011;51448;51.660;5.824;2023-05-07T09:43:57;12.80;;;8.90;;
60502;SDS011;51448;51.660;5.824;2023-05-07T09:46:30;11.93;;;9.23;;
60502;SDS011;51448;51.660;5.824;2023-05-07T09:49:08;12.23;;;9.70;;
60502;SDS011;51448;51.660;5.824;2023-05-07T09:51:48;12.00;;;9.48;;
60502;SDS011;51448;51.660;5.824;2023-05-07T09:54:20;9.48;;;6.88;;
60502;SDS011;51448;51.660;5.824;2023-05-07T09:56:53;9.82;;;6.60;;
60502;SDS011;51448;51.660;5.824;2023-05-07T09:59:24;10.05;;;6.72;;
60502;SDS011;51448;51.660;5.824;2023-05-07T10:01:59;9.80;;;7.22;;
60502;SDS011;51448;51.660;5.824;2023-05-07T10:04:35;10.02;;;6.78;;
60502;SDS011;51448;51.660;5.824;2023-05-07T10:07:03;9.15;;;6.88;;
60502;SDS011;51448;51.660;5.824;2023-05-07T10:09:34;9.75;;;7.00;;
60502;SDS011;51448;51.660;5.824;2023-05-07T10:12:08;12.05;;;9.05;;
60502;SDS011;51448;51.660;5.824;2023-05-07T10:14:37;9.15;;;8.02;;
60502;SDS011;51448;51.660;5.824;2023-05-07T10:17:09;11.40;;;8.65;;
60502;SDS011;51448;51.660;5.824;2023-05-07T10:19:42;12.40;;;9.20;;
60502;SDS011;51448;51.660;5.824;2023-05-07T10:22:12;10.37;;;8.17;;
60502;SDS011;51448;51.660;5.824;2023-05-07T10:24:45;12.45;;;8.38;;
60502;SDS011;51448;51.660;5.824;2023-05-07T10:27:20;12.18;;;8.63;;
60502;SDS011;51448;51.660;5.824;2023-05-07T10:32:44;10.23;;;7.72;;
60502;SDS011;51448;51.660;5.824;2023-05-07T10:35:24;10.65;;;7.82;;
60502;SDS011;51448;51.660;5.824;2023-05-07T10:37:58;11.15;;;8.05;;
60502;SDS011;51448;51.660;5.824;2023-05-07T10:40:30;11.63;;;7.93;;
60502;SDS011;51448;51.660;5.824;2023-05-07T10:43:03;11.40;;;7.13;;
60502;SDS011;51448;51.660;5.824;2023-05-07T10:52:22;10.05;;;7.55;;
60502;SDS011;51448;51.660;5.824;2023-05-07T10:55:19;12.95;;;8.45;;
60502;SDS011;51448;51.660;5.824;2023-05-07T10:57:59;12.45;;;7.70;;
60502;SDS011;51448;51.660;5.824;2023-05-07T11:01:08;11.55;;;8.45;;
60502;SDS011;51448;51.660;5.824;2023-05-07T11:15:12;8.98;;;5.80;;
60502;SDS011;51448;51.660;5.824;2023-05-07T11:17:52;11.00;;;5.88;;
60502;SDS011;51448;51.660;5.824;2023-05-07T11:24:12;8.57;;;6.25;;
60502;SDS011;51448;51.660;5.824;2023-05-07T11:29:20;8.18;;;6.03;;
60502;SDS011;51448;51.660;5.824;2023-05-07T11:31:55;7.97;;;5.38;;
60502;SDS011;51448;51.660;5.824;2023-05-07T11:34:27;8.02;;;4.70;;
60502;SDS011;51448;51.660;5.824;2023-05-07T11:36:57;10.50;;;4.97;;
60502;SDS011;51448;51.660;5.824;2023-05-07T11:39:48;8.13;;;5.00;;
60502;SDS011;51448;51.660;5.824;2023-05-07T11:44:59;8.23;;;5.35;;
60502;SDS011;51448;51.660;5.824;2023-05-07T11:47:32;6.65;;;3.95;;
60502;SDS011;51448;51.660;5.824;2023-05-07T11:50:07;7.75;;;4.35;;
60502;SDS011;51448;51.660;5.824;2023-05-07T11:52:37;7.30;;;4.60;;
60502;SDS011;51448;51.660;5.824;2023-05-07T11:55:06;8.20;;;4.82;;
60502;SDS011;51448;51.660;5.824;2023-05-07T11:57:35;8.68;;;4.72;;
60502;SDS011;51448;51.660;5.824;2023-05-07T12:00:03;7.53;;;4.50;;
60502;SDS011;51448;51.660;5.824;2023-05-07T12:02:42;7.03;;;4.45;;
60502;SDS011;51448;51.660;5.824;2023-05-07T12:05:10;7.22;;;4.20;;
60502;SDS011;51448;51.660;5.824;2023-05-07T12:07:39;6.15;;;4.20;;
60502;SDS011;51448;51.660;5.824;2023-05-07T12:10:06;7.82;;;4.65;;
60502;SDS011;51448;51.660;5.824;2023-05-07T12:12:39;7.95;;;4.35;;
60502;SDS011;51448;51.660;5.824;2023-05-07T12:15:15;7.32;;;4.20;;
60502;SDS011;51448;51.660;5.824;2023-05-07T12:17:45;7.90;;;4.07;;
60502;SDS011;51448;51.660;5.824;2023-05-07T12:20:13;8.70;;;4.55;;
60502;SDS011;51448;51.660;5.824;2023-05-07T12:22:41;7.65;;;4.68;;
60502;SDS011;51448;51.660;5.824;2023-05-07T12:25:10;8.02;;;4.25;;
60502;SDS011;51448;51.660;5.824;2023-05-07T12:27:40;9.05;;;4.95;;
60502;SDS011;51448;51.660;5.824;2023-05-07T12:30:09;8.63;;;5.20;;
60502;SDS011;51448;51.660;5.824;2023-05-07T12:32:38;9.47;;;5.83;;
60502;SDS011;51448;51.660;5.824;2023-05-07T12:35:06;9.48;;;5.53;;
60502;SDS011;51448;51.660;5.824;2023-05-07T12:37:35;8.27;;;4.93;;
60502;SDS011;51448;51.660;5.824;2023-05-07T12:40:07;9.00;;;4.65;;
60502;SDS011;51448;51.660;5.824;2023-05-07T12:42:37;11.77;;;6.05;;
60502;SDS011;51448;51.660;5.824;2023-05-07T12:45:11;11.02;;;5.38;;
60502;SDS011;51448;51.660;5.824;2023-05-07T12:47:46;9.60;;;4.60;;
60502;SDS011;51448;51.660;5.824;2023-05-07T12:50:15;8.35;;;5.13;;
60502;SDS011;51448;51.660;5.824;2023-05-07T12:52:44;8.73;;;4.68;;
60502;SDS011;51448;51.660;5.824;2023-05-07T12:55:15;7.72;;;4.82;;
60502;SDS011;51448;51.660;5.824;2023-05-07T12:57:45;8.52;;;5.40;;
60502;SDS011;51448;51.660;5.824;2023-05-07T13:00:15;8.03;;;5.10;;
60502;SDS011;51448;51.660;5.824;2023-05-07T13:02:44;8.32;;;5.03;;
60502;SDS011;51448;51.660;5.824;2023-05-07T13:05:12;7.97;;;5.22;;
60502;SDS011;51448;51.660;5.824;2023-05-07T13:07:41;10.60;;;6.22;;
60502;SDS011;51448;51.660;5.824;2023-05-07T13:10:23;9.10;;;5.55;;
60502;SDS011;51448;51.660;5.824;2023-05-07T13:12:52;6.35;;;3.40;;
60502;SDS011;51448;51.660;5.824;2023-05-07T13:15:20;6.43;;;3.30;;
60502;SDS011;51448;51.660;5.824;2023-05-07T13:17:49;6.72;;;3.55;;
60502;SDS011;51448;51.660;5.824;2023-05-07T13:20:17;6.47;;;3.38;;
60502;SDS011;51448;51.660;5.824;2023-05-07T13:22:44;7.72;;;4.35;;
60502;SDS011;51448;51.660;5.824;2023-05-07T13:25:12;7.30;;;3.45;;
60502;SDS011;51448;51.660;5.824;2023-05-07T13:27:40;7.00;;;3.58;;
60502;SDS011;51448;51.660;5.824;2023-05-07T13:30:08;11.02;;;3.80;;
60502;SDS011;51448;51.660;5.824;2023-05-07T13:32:35;7.97;;;3.70;;
60502;SDS011;51448;51.660;5.824;2023-05-07T13:35:03;5.93;;;3.55;;
60502;SDS011;51448;51.660;5.824;2023-05-07T13:37:31;8.18;;;3.80;;
60502;SDS011;51448;51.660;5.824;2023-05-07T13:39:59;6.90;;;3.92;;
60502;SDS011;51448;51.660;5.824;2023-05-07T13:42:27;6.70;;;3.50;;
60502;SDS011;51448;51.660;5.824;2023-05-07T13:44:54;6.13;;;3.55;;
60502;SDS011;51448;51.660;5.824;2023-05-07T13:47:22;7.07;;;3.70;;
60502;SDS011;51448;51.660;5.824;2023-05-07T13:49:52;6.75;;;3.38;;
60502;SDS011;51448;51.660;5.824;2023-05-07T13:52:19;5.97;;;3.63;;
60502;SDS011;51448;51.660;5.824;2023-05-07T13:54:47;5.75;;;2.80;;
60502;SDS011;51448;51.660;5.824;2023-05-07T13:57:15;3.65;;;1.20;;
60502;SDS011;51448;51.660;5.824;2023-05-07T13:59:42;2.97;;;0.80;;
60502;SDS011;51448;51.660;5.824;2023-05-07T14:02:10;3.22;;;1.10;;
60502;SDS011;51448;51.660;5.824;2023-05-07T14:04:37;2.38;;;1.08;;
60502;SDS011;51448;51.660;5.824;2023-05-07T14:07:05;2.97;;;0.95;;
60502;SDS011;51448;51.660;5.824;2023-05-07T14:09:33;2.67;;;1.02;;
60502;SDS011;51448;51.660;5.824;2023-05-07T14:12:00;2.88;;;1.02;;
60502;SDS011;51448;51.660;5.824;2023-05-07T14:14:28;2.30;;;1.10;;
60502;SDS011;51448;51.660;5.824;2023-05-07T14:16:56;3.22;;;0.90;;
60502;SDS011;51448;51.660;5.824;2023-05-07T14:19:25;2.50;;;0.90;;
60502;SDS011;51448;51.660;5.824;2023-05-07T14:21:52;4.22;;;0.80;;
60502;SDS011;51448;51.660;5.824;2023-05-07T14:24:20;4.35;;;1.20;;
60502;SDS011;51448;51.660;5.824;2023-05-07T14:27:04;3.03;;;0.93;;
60502;SDS011;51448;51.660;5.824;2023-05-07T14:29:31;2.97;;;1.10;;
60502;SDS011;51448;51.660;5.824;2023-05-07T14:31:59;4.03;;;1.40;;
60502;SDS011;51448;51.660;5.824;2023-05-07T14:34:27;4.00;;;1.50;;
60502;SDS011;51448;51.660;5.824;2023-05-07T14:36:54;5.38;;;1.60;;
60502;SDS011;51448;51.660;5.824;2023-05-07T14:39:22;7.07;;;1.60;;
60502;SDS011;51448;51.660;5.824;2023-05-07T14:41:50;9.93;;;1.98;;
60502;SDS011;51448;51.660;5.824;2023-05-07T14:44:18;5.82;;;1.58;;
60502;SDS011;51448;51.660;5.824;2023-05-07T14:46:45;4.75;;;1.60;;
60502;SDS011;51448;51.660;5.824;2023-05-07T14:49:14;6.95;;;1.60;;
60502;SDS011;51448;51.660;5.824;2023-05-07T14:51:44;5.40;;;1.63;;
60502;SDS011;51448;51.660;5.824;2023-05-07T14:54:13;4.97;;;1.55;;
60502;SDS011;51448;51.660;5.824;2023-05-07T14:56:41;7.40;;;2.00;;
60502;SDS011;51448;51.660;5.824;2023-05-07T14:59:09;7.85;;;2.08;;
60502;SDS011;51448;51.660;5.824;2023-05-07T15:01:37;7.32;;;2.10;;
60502;SDS011;51448;51.660;5.824;2023-05-07T15:04:07;5.07;;;2.17;;
60502;SDS011;51448;51.660;5.824;2023-05-07T15:06:35;7.28;;;2.10;;
60502;SDS011;51448;51.660;5.824;2023-05-07T15:09:02;6.47;;;2.17;;
60502;SDS011;51448;51.660;5.824;2023-05-07T15:11:30;4.43;;;1.95;;
60502;SDS011;51448;51.660;5.824;2023-05-07T15:13:58;6.53;;;2.00;;
60502;SDS011;51448;51.660;5.824;2023-05-07T15:16:26;7.13;;;2.38;;
60502;SDS011;51448;51.660;5.824;2023-05-07T15:18:54;4.70;;;1.95;;
60502;SDS011;51448;51.660;5.824;2023-05-07T15:21:22;4.07;;;1.92;;
60502;SDS011;51448;51.660;5.824;2023-05-07T15:23:50;4.50;;;1.77;;